createdAt,value
2018-12-13T00:00:56.421Z,8.50
2018-12-13T00:03:25.024Z,10.30
2018-12-13T00:05:53.687Z,6.00
2018-12-13T00:08:22.332Z,12.77
2018-12-13T00:10:51.257Z,7.47
2018-12-13T00:13:19.866Z,8.67
2018-12-13T00:15:48.871Z,6.40
2018-12-13T00:18:17.953Z,6.30
2018-12-13T00:20:47.205Z,5.03
2018-12-13T00:23:16.324Z,5.50
2018-12-13T00:25:45.850Z,4.83
2018-12-13T00:28:14.971Z,4.70
2018-12-13T00:30:44.303Z,5.30
2018-12-13T00:33:12.951Z,5.50
2018-12-13T00:35:41.637Z,6.77
2018-12-13T00:38:10.284Z,5.60
2018-12-13T00:40:38.941Z,6.77
2018-12-13T00:43:07.558Z,6.97
2018-12-13T00:45:36.244Z,6.50
2018-12-13T00:48:05.066Z,6.03
2018-12-13T00:50:33.715Z,6.73
2018-12-13T00:53:02.425Z,7.67
2018-12-13T00:55:31.121Z,7.07
2018-12-13T00:57:59.806Z,8.33
2018-12-13T01:00:28.876Z,7.73
2018-12-13T01:02:58.170Z,10.23
2018-12-13T01:05:27.310Z,7.80
2018-12-13T01:07:56.329Z,7.83
2018-12-13T01:10:25.414Z,7.67
2018-12-13T01:12:54.479Z,7.90
2018-12-13T01:15:23.941Z,9.57
2018-12-13T01:17:53.174Z,9.63
2018-12-13T01:20:21.844Z,9.50
2018-12-13T01:22:50.952Z,9.77
2018-12-13T01:25:19.660Z,9.83
2018-12-13T01:27:48.348Z,8.80
2018-12-13T01:30:17.125Z,10.90
2018-12-13T01:32:47.419Z,8.77
2018-12-13T01:35:16.111Z,8.43
2018-12-13T01:37:44.831Z,9.27
2018-12-13T01:40:13.586Z,11.77
2018-12-13T01:42:42.939Z,9.20
2018-12-13T01:45:12.334Z,8.73
2018-12-13T01:47:41.817Z,8.77
2018-12-13T01:50:11.143Z,10.80
2018-12-13T01:52:40.410Z,9.60
2018-12-13T01:55:09.762Z,9.50
2018-12-13T01:57:38.441Z,9.33
2018-12-13T02:00:07.267Z,9.13
2018-12-13T02:02:36.007Z,9.63
2018-12-13T02:05:04.868Z,9.90
2018-12-13T02:07:33.543Z,9.63
2018-12-13T02:10:02.174Z,8.70
2018-12-13T02:12:30.842Z,10.65
2018-12-13T02:14:59.468Z,9.27
2018-12-13T02:17:28.098Z,9.30
2018-12-13T02:19:56.835Z,10.10
2018-12-13T02:22:25.601Z,7.60
2018-12-13T02:24:54.831Z,8.47
2018-12-13T02:27:24.068Z,8.67
2018-12-13T02:29:53.268Z,7.30
2018-12-13T02:32:22.604Z,7.50
2018-12-13T02:34:51.698Z,7.33
2018-12-13T02:37:20.585Z,7.17
2018-12-13T02:39:49.670Z,7.07
2018-12-13T02:42:18.944Z,6.30
2018-12-13T02:44:48.274Z,7.00
2018-12-13T02:47:17.386Z,6.30
2018-12-13T02:49:46.672Z,6.00
2018-12-13T02:52:15.948Z,6.27
2018-12-13T02:54:45.270Z,6.20
2018-12-13T02:57:14.553Z,7.20
2018-12-13T02:59:43.216Z,6.77
2018-12-13T03:02:11.839Z,7.67
2018-12-13T03:04:40.538Z,6.60
2018-12-13T03:07:13.651Z,7.77
2018-12-13T03:09:40.836Z,7.23
2018-12-13T03:12:10.150Z,8.17
2018-12-13T03:14:39.306Z,7.10
2018-12-13T03:17:08.208Z,7.47
2018-12-13T03:19:37.709Z,6.53
2018-12-13T03:22:07.275Z,7.40
2018-12-13T03:24:36.523Z,7.93
2018-12-13T03:27:05.909Z,7.17
2018-12-13T03:29:34.984Z,6.80
2018-12-13T03:32:04.205Z,6.93
2018-12-13T03:34:33.484Z,5.97
2018-12-13T03:37:02.737Z,6.70
2018-12-13T03:39:31.363Z,6.97
2018-12-13T03:41:59.986Z,7.10
2018-12-13T03:44:28.657Z,7.10
2018-12-13T03:46:57.320Z,7.60
2018-12-13T03:49:25.954Z,7.40
2018-12-13T03:51:55.256Z,8.03
2018-12-13T03:54:24.734Z,8.40
2018-12-13T03:56:53.807Z,9.07
2018-12-13T03:59:22.932Z,8.20
2018-12-13T04:01:52.201Z,8.93
2018-12-13T04:04:21.522Z,7.70
2018-12-13T04:06:50.887Z,7.60
2018-12-13T04:09:20.134Z,8.43
2018-12-13T04:11:49.005Z,8.43
2018-12-13T04:14:18.183Z,7.47
2018-12-13T04:16:47.170Z,7.90
2018-12-13T04:19:16.855Z,8.67
2018-12-13T04:21:45.961Z,8.20
2018-12-13T04:24:14.706Z,8.70
2018-12-13T04:26:44.094Z,8.53
2018-12-13T04:29:12.789Z,10.60
2018-12-13T04:31:41.759Z,8.53
2018-12-13T04:34:10.871Z,8.10
2018-12-13T04:36:39.986Z,8.30
2018-12-13T04:39:09.231Z,8.73
2018-12-13T04:41:38.340Z,10.07
2018-12-13T04:44:07.457Z,8.38
2018-12-13T04:46:36.567Z,7.90
2018-12-13T04:49:05.811Z,7.87
2018-12-13T04:51:34.858Z,9.13
2018-12-13T04:54:03.507Z,9.03
2018-12-13T04:56:33.021Z,9.68
2018-12-13T04:59:02.200Z,8.15
2018-12-13T05:01:31.007Z,8.33
2018-12-13T05:04:00.095Z,8.95
2018-12-13T05:06:29.435Z,10.08
2018-12-13T05:08:58.486Z,12.33
2018-12-13T05:11:27.137Z,9.63
2018-12-13T05:13:55.840Z,9.50
2018-12-13T05:16:24.474Z,10.13
2018-12-13T05:18:53.072Z,7.83
2018-12-13T05:21:22.355Z,7.50
2018-12-13T05:23:51.896Z,7.67
2018-12-13T05:26:20.932Z,7.33
2018-12-13T05:28:50.047Z,7.55
2018-12-13T05:31:19.370Z,7.70
2018-12-13T05:33:48.351Z,9.65
2018-12-13T05:36:17.455Z,8.15
2018-12-13T05:38:46.132Z,10.58
2018-12-13T05:41:15.324Z,9.30
2018-12-13T05:43:46.160Z,8.70
2018-12-13T05:46:14.935Z,9.75
2018-12-13T05:48:43.649Z,9.65
2018-12-13T05:51:12.383Z,8.63
2018-12-13T05:53:41.165Z,9.80
2018-12-13T05:56:09.932Z,10.60
2018-12-13T05:58:38.774Z,10.38
2018-12-13T06:01:07.454Z,10.50
2018-12-13T06:03:36.180Z,11.22
2018-12-13T06:06:05.482Z,11.35
2018-12-13T06:08:34.809Z,10.03
2018-12-13T06:11:03.886Z,8.65
2018-12-13T06:13:32.962Z,9.48
2018-12-13T06:16:02.267Z,8.33
2018-12-13T06:18:31.372Z,6.97
2018-12-13T06:21:00.051Z,7.60
2018-12-13T06:23:29.481Z,6.53
2018-12-13T06:25:58.151Z,8.23
2018-12-13T06:28:26.878Z,7.80
2018-12-13T06:30:56.131Z,7.40
2018-12-13T06:33:25.146Z,7.37
2018-12-13T06:35:53.936Z,9.20
2018-12-13T06:38:22.613Z,6.92
2018-12-13T06:40:51.859Z,6.83
2018-12-13T06:43:20.971Z,8.50
2018-12-13T06:45:49.588Z,7.60
2018-12-13T06:48:19.087Z,9.80
2018-12-13T06:50:48.198Z,7.58
2018-12-13T06:53:17.686Z,7.05
2018-12-13T06:55:46.983Z,9.63
2018-12-13T06:58:16.168Z,10.08
2018-12-13T07:00:45.591Z,9.10
2018-12-13T07:03:15.109Z,7.30
2018-12-13T07:05:44.280Z,5.95
2018-12-13T07:08:13.498Z,6.35
2018-12-13T07:10:42.586Z,6.28
2018-12-13T07:13:11.700Z,6.12
2018-12-13T07:15:40.775Z,6.70
2018-12-13T07:18:09.887Z,8.05
2018-12-13T07:20:39.121Z,7.75
2018-12-13T07:23:08.142Z,5.83
2018-12-13T07:25:36.894Z,8.50
2018-12-13T07:28:05.596Z,7.37
2018-12-13T07:30:34.278Z,6.87
2018-12-13T07:33:03.415Z,7.20
2018-12-13T07:35:32.713Z,4.97
2018-12-13T07:38:02.214Z,5.40
2018-12-13T07:40:32.368Z,5.53
2018-12-13T07:43:01.436Z,5.87
2018-12-13T07:45:30.963Z,6.30
2018-12-13T07:47:59.993Z,6.50
2018-12-13T07:50:28.761Z,5.45
2018-12-13T07:52:57.821Z,6.37
2018-12-13T07:55:26.869Z,6.30
2018-12-13T07:57:55.967Z,5.28
2018-12-13T08:00:25.222Z,5.30
2018-12-13T08:02:54.706Z,5.80
2018-12-13T08:05:23.832Z,6.53
2018-12-13T08:07:52.746Z,6.93
2018-12-13T08:10:21.867Z,6.70
2018-12-13T08:12:51.173Z,5.75
2018-12-13T08:15:20.472Z,5.72
2018-12-13T08:17:49.739Z,5.95
2018-12-13T08:20:18.894Z,7.40
2018-12-13T08:22:48.293Z,6.42
2018-12-13T08:25:17.529Z,6.53
2018-12-13T08:27:46.432Z,5.83
2018-12-13T08:30:15.536Z,5.72
2018-12-13T08:32:44.884Z,6.37
2018-12-13T08:35:14.001Z,6.50
2018-12-13T08:37:43.291Z,6.10
2018-12-13T08:40:12.623Z,6.10
2018-12-13T08:42:41.879Z,6.30
2018-12-13T08:45:10.752Z,6.10
2018-12-13T08:47:40.294Z,5.90
2018-12-13T08:50:09.221Z,5.95
2018-12-13T08:52:38.402Z,5.85
2018-12-13T08:55:07.194Z,5.83
2018-12-13T08:57:35.891Z,6.17
2018-12-13T09:00:05.188Z,6.23
2018-12-13T09:02:34.389Z,6.20
2018-12-13T09:05:03.948Z,6.53
2018-12-13T09:07:32.928Z,6.00
2018-12-13T09:10:02.262Z,6.53
2018-12-13T09:12:31.706Z,6.35
2018-12-13T09:15:00.993Z,5.10
2018-12-13T09:17:30.185Z,5.75
2018-12-13T09:19:59.753Z,5.80
2018-12-13T09:22:29.022Z,5.45
2018-12-13T09:24:58.392Z,4.70
2018-12-13T09:27:28.301Z,5.78
2018-12-13T09:29:57.401Z,6.45
2018-12-13T09:32:26.393Z,5.87
2018-12-13T09:34:55.138Z,6.47
2018-12-13T09:37:24.177Z,6.10
2018-12-13T09:39:53.477Z,6.62
2018-12-13T09:42:22.696Z,6.70
2018-12-13T09:44:51.773Z,6.03
2018-12-13T09:47:21.272Z,5.92
2018-12-13T09:49:50.597Z,5.62
2018-12-13T09:52:19.657Z,6.22
2018-12-13T09:54:48.757Z,6.05
2018-12-13T09:57:17.863Z,6.20
2018-12-13T09:59:46.746Z,5.75
2018-12-13T10:02:15.854Z,6.53
2018-12-13T10:04:45.004Z,6.97
2018-12-13T10:07:14.871Z,6.28
2018-12-13T10:09:44.417Z,7.20
2018-12-13T10:12:13.652Z,6.40
2018-12-13T10:14:42.725Z,6.40
2018-12-13T10:17:12.724Z,6.17
2018-12-13T10:19:41.993Z,5.80
2018-12-13T10:22:12.098Z,8.38
2018-12-13T10:24:41.185Z,6.15
2018-12-13T10:27:10.180Z,5.90
2018-12-13T10:29:39.485Z,6.28
2018-12-13T10:32:08.806Z,6.47
2018-12-13T10:34:38.108Z,5.80
2018-12-13T10:37:07.145Z,5.33
2018-12-13T10:39:36.324Z,4.70
2018-12-13T10:42:05.560Z,5.10
2018-12-13T10:44:35.823Z,4.70
2018-12-13T10:47:04.945Z,4.92
2018-12-13T10:49:34.246Z,4.62
2018-12-13T10:52:03.461Z,4.90
2018-12-13T10:54:32.536Z,4.17
2018-12-13T10:57:01.916Z,4.80
2018-12-13T10:59:30.987Z,4.75
2018-12-13T11:02:01.511Z,4.30
2018-12-13T11:04:30.183Z,4.60
2018-12-13T11:06:58.836Z,4.65
2018-12-13T11:09:27.659Z,4.12
2018-12-13T11:11:56.854Z,4.37
2018-12-13T11:14:26.139Z,4.55
2018-12-13T11:16:55.386Z,4.75
2018-12-13T11:19:24.471Z,4.00
2018-12-13T11:21:53.697Z,4.50
2018-12-13T11:24:23.007Z,4.00
2018-12-13T11:26:52.093Z,3.95
2018-12-13T11:32:24.501Z,4.40
2018-12-13T11:34:53.827Z,4.22
2018-12-13T11:37:23.087Z,4.30
2018-12-13T11:39:52.438Z,3.87
2018-12-13T11:42:21.199Z,4.35
2018-12-13T11:44:50.664Z,3.90
2018-12-13T11:47:19.942Z,3.67
2018-12-13T11:49:48.945Z,3.90
2018-12-13T11:52:17.564Z,3.98
2018-12-13T11:54:46.323Z,4.47
2018-12-13T11:57:15.479Z,4.10
2018-12-13T11:59:44.575Z,4.20
2018-12-13T12:02:13.630Z,4.50
2018-12-13T12:04:42.787Z,4.25
2018-12-13T12:07:11.822Z,4.08
2018-12-13T12:09:41.104Z,4.80
2018-12-13T12:12:10.228Z,4.28
2018-12-13T12:14:39.302Z,4.53
2018-12-13T12:17:08.399Z,3.80
2018-12-13T12:19:37.631Z,4.20
2018-12-13T12:22:06.691Z,4.92
2018-12-13T12:24:35.778Z,3.42
2018-12-13T12:27:04.899Z,3.77
2018-12-13T12:29:34.173Z,3.42
2018-12-13T12:32:03.263Z,4.67
2018-12-13T12:34:32.593Z,4.20
2018-12-13T12:37:01.209Z,3.98
2018-12-13T12:39:29.792Z,4.10
2018-12-13T12:41:58.837Z,4.20
2018-12-13T12:44:30.306Z,4.33
2018-12-13T12:46:59.512Z,4.85
2018-12-13T12:49:28.575Z,4.50
2018-12-13T12:51:57.877Z,4.15
2018-12-13T12:54:27.411Z,4.37
2018-12-13T12:56:56.189Z,34.45
2018-12-13T12:59:25.542Z,29.12
2018-12-13T13:01:54.624Z,23.35
2018-12-13T13:04:24.334Z,26.02
2018-12-13T13:06:53.434Z,29.75
2018-12-13T13:09:25.195Z,22.27
2018-12-13T13:11:54.471Z,28.98
2018-12-13T13:14:23.746Z,7.40
2018-12-13T13:16:52.417Z,10.03
2018-12-13T13:19:21.148Z,19.90
2018-12-13T13:21:49.854Z,27.75
2018-12-13T13:24:19.300Z,19.77
2018-12-13T13:26:48.132Z,13.85
2018-12-13T13:29:17.413Z,26.68
2018-12-13T13:31:46.347Z,15.18
2018-12-13T13:34:15.363Z,16.15
2018-12-13T13:36:44.652Z,15.38
2018-12-13T13:39:13.915Z,13.75
2018-12-13T13:41:43.255Z,13.90
2018-12-13T13:44:12.716Z,13.53
2018-12-13T13:46:41.981Z,15.48
2018-12-13T13:49:11.296Z,14.38
2018-12-13T13:51:40.527Z,16.00
2018-12-13T13:54:09.904Z,13.13
2018-12-13T13:56:39.032Z,13.10
2018-12-13T13:59:08.358Z,13.35
2018-12-13T14:01:37.004Z,10.70
2018-12-13T14:04:06.410Z,12.95
2018-12-13T14:06:35.196Z,11.55
2018-12-13T14:09:06.727Z,7.85
2018-12-13T14:11:36.191Z,5.00
2018-12-13T14:14:05.960Z,5.70
2018-12-13T14:16:35.102Z,5.95
2018-12-13T14:19:04.196Z,6.22
2018-12-13T14:21:33.891Z,6.33
2018-12-13T14:24:03.184Z,5.45
2018-12-13T14:26:32.301Z,4.50
2018-12-13T14:29:01.337Z,5.40
2018-12-13T14:31:30.559Z,6.92
2018-12-13T14:33:59.349Z,7.83
2018-12-13T14:36:28.436Z,6.30
2018-12-13T14:38:57.742Z,7.53
2018-12-13T14:41:27.044Z,9.33
2018-12-13T14:43:56.290Z,8.93
2018-12-13T14:46:24.943Z,11.45
2018-12-13T14:48:54.352Z,9.05
2018-12-13T14:51:23.032Z,9.73
2018-12-13T14:53:52.165Z,8.78
2018-12-13T14:56:21.672Z,9.68
2018-12-13T14:58:50.900Z,13.13
2018-12-13T15:01:20.183Z,10.20
2018-12-13T15:03:49.557Z,7.50
2018-12-13T15:06:18.394Z,7.20
2018-12-13T15:08:47.314Z,7.70
2018-12-13T15:11:16.192Z,7.15
2018-12-13T15:13:44.901Z,7.50
2018-12-13T15:16:13.994Z,5.85
2018-12-13T15:18:43.283Z,8.05
2018-12-13T15:21:12.345Z,18.57
2018-12-13T15:23:41.476Z,21.35
2018-12-13T15:26:10.775Z,7.70
2018-12-13T15:28:39.936Z,6.55
2018-12-13T15:31:09.031Z,20.17
2018-12-13T15:33:38.744Z,14.05
2018-12-13T15:36:08.287Z,16.05
2018-12-13T15:38:37.713Z,14.55
2018-12-13T15:41:07.221Z,7.95
2018-12-13T15:43:36.059Z,6.60
2018-12-13T15:46:05.239Z,8.30
2018-12-13T15:48:34.246Z,6.60
2018-12-13T15:51:03.182Z,8.15
2018-12-13T15:53:32.470Z,8.10
2018-12-13T15:56:01.986Z,7.35
2018-12-13T15:58:31.763Z,6.00
2018-12-13T16:01:00.956Z,7.15
2018-12-13T16:03:29.806Z,6.40
2018-12-13T16:05:58.884Z,5.42
2018-12-13T16:08:28.202Z,5.30
2018-12-13T16:10:57.489Z,5.40
2018-12-13T16:13:26.110Z,5.45
2018-12-13T16:15:54.759Z,5.45
2018-12-13T16:18:23.910Z,6.20
2018-12-13T16:20:53.358Z,6.05
2018-12-13T16:23:22.654Z,5.30
2018-12-13T16:25:52.162Z,5.80
2018-12-13T16:28:21.302Z,6.50
2018-12-13T16:30:50.665Z,7.87
2018-12-13T16:33:19.886Z,5.50
2018-12-13T16:35:48.955Z,5.97
2018-12-13T16:38:18.310Z,6.60
2018-12-13T16:40:47.350Z,6.15
2018-12-13T16:43:16.632Z,4.87
2018-12-13T16:45:46.054Z,6.10
2018-12-13T16:48:15.187Z,5.35
2018-12-13T16:50:44.330Z,5.37
2018-12-13T16:53:13.567Z,5.22
2018-12-13T16:55:43.111Z,5.05
2018-12-13T16:58:11.744Z,4.50
2018-12-13T17:00:40.416Z,4.40
2018-12-13T17:03:20.278Z,4.67
2018-12-13T17:05:48.916Z,4.80
2018-12-13T17:08:18.367Z,4.60
2018-12-13T17:10:47.665Z,5.00
2018-12-13T17:13:16.963Z,4.23
2018-12-13T17:15:46.236Z,4.27
2018-12-13T17:18:15.134Z,4.80
2018-12-13T17:20:44.717Z,4.43
2018-12-13T17:23:13.821Z,4.10
2018-12-13T17:25:42.920Z,4.37
2018-12-13T17:28:12.052Z,4.27
2018-12-13T17:30:41.345Z,3.60
2018-12-13T17:33:10.454Z,4.00
2018-12-13T17:35:39.550Z,3.83
2018-12-13T17:38:08.206Z,4.77
2018-12-13T17:40:36.859Z,3.97
2018-12-13T17:43:05.599Z,3.83
2018-12-13T17:45:34.265Z,4.50
2018-12-13T17:48:02.960Z,3.97
2018-12-13T17:50:31.694Z,3.80
2018-12-13T17:53:01.374Z,3.93
2018-12-13T17:55:30.421Z,3.37
2018-12-13T17:57:59.795Z,3.60
2018-12-13T18:00:29.013Z,4.20
2018-12-13T18:02:57.907Z,4.70
2018-12-13T18:05:27.202Z,3.80
2018-12-13T18:07:56.794Z,4.00
2018-12-13T18:10:29.370Z,4.27
2018-12-13T18:12:57.173Z,4.10
2018-12-13T18:15:26.483Z,4.63
2018-12-13T18:17:55.961Z,4.57
2018-12-13T18:20:25.061Z,4.10
2018-12-13T18:22:54.466Z,4.20
2018-12-13T18:25:23.783Z,4.33
2018-12-13T18:27:53.142Z,4.37
2018-12-13T18:30:22.381Z,4.47
2018-12-13T18:32:51.660Z,4.43
2018-12-13T18:35:20.959Z,4.90
2018-12-13T18:37:50.072Z,4.40
2018-12-13T18:40:19.576Z,3.90
2018-12-13T18:42:48.931Z,4.50
2018-12-13T18:45:20.279Z,4.33
2018-12-13T18:47:49.645Z,4.60
2018-12-13T18:50:18.919Z,3.90
2018-12-13T18:52:48.392Z,4.10
2018-12-13T18:55:18.379Z,4.33
2018-12-13T18:57:47.416Z,4.00
2018-12-13T19:00:16.702Z,3.80
2018-12-13T19:02:46.003Z,4.13
2018-12-13T19:05:15.133Z,4.30
2018-12-13T19:07:44.120Z,3.97
2018-12-13T19:10:12.763Z,4.00
2018-12-13T19:12:41.892Z,4.83
2018-12-13T19:15:10.551Z,4.30
2018-12-13T19:17:39.180Z,3.43
2018-12-13T19:20:08.813Z,3.40
2018-12-13T19:22:38.063Z,3.90
2018-12-13T19:25:07.832Z,3.77
2018-12-13T19:27:37.862Z,3.70
2018-12-13T19:30:07.507Z,3.30
2018-12-13T19:32:37.065Z,3.80
2018-12-13T19:35:06.117Z,3.30
2018-12-13T19:37:35.370Z,3.77
2018-12-13T19:40:05.417Z,3.30
2018-12-13T19:42:34.722Z,3.57
2018-12-13T19:45:03.951Z,3.50
2018-12-13T19:47:33.319Z,3.40
2018-12-13T19:50:02.628Z,3.20
2018-12-13T19:52:31.258Z,3.10
2018-12-13T19:55:00.389Z,2.60
2018-12-13T19:57:29.909Z,3.20
2018-12-13T19:59:58.532Z,2.77
2018-12-13T20:02:27.936Z,3.17
2018-12-13T20:04:57.006Z,2.67
2018-12-13T20:07:26.308Z,2.73
2018-12-13T20:09:55.592Z,2.87
2018-12-13T20:12:24.900Z,3.07
2018-12-13T20:14:53.980Z,3.00
2018-12-13T20:17:23.259Z,3.13
2018-12-13T20:19:52.375Z,2.47
2018-12-13T20:22:21.665Z,2.73
2018-12-13T20:24:51.027Z,2.80
2018-12-13T20:27:20.410Z,2.80
2018-12-13T20:29:49.689Z,3.10
2018-12-13T20:32:19.078Z,2.30
2018-12-13T20:34:48.096Z,2.60
2018-12-13T20:37:17.578Z,2.90
2018-12-13T20:39:46.908Z,2.70
2018-12-13T20:42:16.182Z,2.70
2018-12-13T20:44:45.058Z,2.43
2018-12-13T20:47:13.771Z,2.63
2018-12-13T20:49:43.046Z,2.67
2018-12-13T20:52:12.075Z,2.90
2018-12-13T20:54:41.457Z,2.63
2018-12-13T20:57:10.544Z,2.53
2018-12-13T20:59:39.830Z,2.80
2018-12-13T21:02:09.003Z,2.67
2018-12-13T21:04:38.191Z,3.67
2018-12-13T21:07:12.934Z,2.83
2018-12-13T21:09:42.184Z,2.70
2018-12-13T21:12:11.632Z,2.50
2018-12-13T21:14:41.104Z,2.90
2018-12-13T21:17:10.442Z,3.43
2018-12-13T21:19:39.487Z,2.83
2018-12-13T21:22:08.810Z,2.97
2018-12-13T21:24:37.437Z,3.47
2018-12-13T21:30:01.755Z,2.80
2018-12-13T21:32:30.422Z,2.90
2018-12-13T21:35:00.337Z,2.60
2018-12-13T21:37:29.629Z,3.13
2018-12-13T21:39:58.937Z,3.33
2018-12-13T21:42:28.399Z,3.17
2018-12-13T21:44:57.702Z,3.50
2018-12-13T21:47:27.075Z,3.50
2018-12-13T21:49:56.087Z,3.93
2018-12-13T21:52:25.228Z,2.67
2018-12-13T21:54:54.482Z,3.27
2018-12-13T21:57:23.900Z,2.90
2018-12-13T21:59:52.697Z,3.77
2018-12-13T22:02:22.020Z,3.53
2018-12-13T22:04:50.636Z,3.80
2018-12-13T22:07:19.284Z,3.87
2018-12-13T22:09:47.930Z,3.70
2018-12-13T22:12:16.589Z,4.07
2018-12-13T22:14:45.221Z,4.10
2018-12-13T22:17:14.547Z,4.63
2018-12-13T22:19:43.899Z,4.80
2018-12-13T22:22:12.864Z,4.43
2018-12-13T22:24:42.227Z,4.80
2018-12-13T22:27:11.468Z,4.50
2018-12-13T22:29:41.313Z,3.77
2018-12-13T22:32:10.553Z,3.67
2018-12-13T22:34:39.603Z,3.60
2018-12-13T22:37:09.066Z,4.00
2018-12-13T22:39:38.198Z,4.03
2018-12-13T22:42:07.455Z,4.40
2018-12-13T22:44:36.581Z,3.73
2018-12-13T22:47:05.529Z,3.70
2018-12-13T22:49:34.544Z,3.90
2018-12-13T22:52:03.200Z,3.80
2018-12-13T22:54:31.849Z,3.87
2018-12-13T22:57:00.456Z,4.23
2018-12-13T22:59:29.054Z,4.10
2018-12-13T23:01:58.329Z,4.00
2018-12-13T23:04:27.584Z,4.50
2018-12-13T23:06:57.124Z,4.37
2018-12-13T23:09:26.202Z,4.50
2018-12-13T23:11:56.586Z,4.50
2018-12-13T23:14:25.520Z,4.60
2018-12-13T23:16:54.702Z,4.17
2018-12-13T23:19:23.777Z,5.13
2018-12-13T23:21:53.196Z,4.10
2018-12-13T23:24:22.267Z,3.80
2018-12-13T23:26:51.905Z,5.20
2018-12-13T23:29:20.931Z,4.80
2018-12-13T23:31:49.926Z,4.57
2018-12-13T23:34:19.624Z,4.30
2018-12-13T23:36:48.341Z,4.70
2018-12-13T23:39:17.074Z,4.30
2018-12-13T23:41:45.733Z,4.07
2018-12-13T23:44:14.401Z,3.60
2018-12-13T23:46:43.095Z,3.70
2018-12-13T23:49:12.110Z,4.10
2018-12-13T23:51:40.833Z,4.40
2018-12-13T23:54:09.458Z,4.83
2018-12-13T23:56:38.086Z,5.10
2018-12-13T23:59:07.194Z,3.60
